Time;durP1;ratioP1;P1;durP2;ratioP2;P2;SDS_P1;SDS_P2;PMS_P1;PMS_P2;Temp;Humidity;BMP_temperature;BMP_pressure;BME280_temperature;BME280_humidity;BME280_pressure;Samples;Min_cycle;Max_cycle;Signal;HPM_P1;HPM_P2
2022/04/21 00:00:37;;;;;;;9.40;3.33;;;9.40;99.90;;;;;;5053506;28;20180;-42
2022/04/21 00:03:04;;;;;;;8.57;2.97;;;9.40;99.90;;;;;;5053775;28;20534;-42
2022/04/21 00:05:31;;;;;;;6.57;2.97;;;9.30;99.90;;;;;;5053757;28;20719;-42
2022/04/21 00:07:56;;;;;;;6.53;2.97;;;9.40;99.90;;;;;;5053405;28;20194;-42
2022/04/21 00:10:23;;;;;;;3.90;2.87;;;9.30;99.90;;;;;;5053540;28;20287;-40
2022/04/21 00:12:50;;;;;;;4.97;2.60;;;9.30;99.90;;;;;;5053660;28;20183;-43
2022/04/21 00:15:16;;;;;;;7.03;4.00;;;9.30;99.90;;;;;;5053729;28;20205;-44
2022/04/21 00:17:42;;;;;;;7.43;3.10;;;9.20;99.90;;;;;;5053291;28;20217;-42
2022/04/21 00:20:08;;;;;;;8.00;4.00;;;9.10;99.90;;;;;;5053631;28;20176;-42
2022/04/21 00:25:18;;;;;;;8.27;3.13;;;9.00;99.90;;;;;;5053602;28;20628;-41
2022/04/21 00:27:45;;;;;;;6.50;2.80;;;9.00;99.90;;;;;;5053176;28;20198;-40
2022/04/21 00:30:12;;;;;;;16.53;3.13;;;9.00;99.90;;;;;;5052956;28;20180;-41
2022/04/21 00:32:39;;;;;;;10.57;3.20;;;9.10;99.90;;;;;;5053182;28;20259;-43
2022/04/21 00:35:07;;;;;;;12.50;3.33;;;9.10;99.90;;;;;;5053172;28;20177;-43
2022/04/21 00:37:42;;;;;;;9.77;2.83;;;9.10;99.90;;;;;;5053220;28;20577;-41
2022/04/21 00:40:08;;;;;;;6.83;2.70;;;9.10;99.90;;;;;;5053452;28;20528;-40
2022/04/21 00:42:34;;;;;;;11.57;3.23;;;9.10;99.90;;;;;;5051759;28;20664;-43
2022/04/21 00:44:59;;;;;;;13.53;3.40;;;9.10;99.90;;;;;;5053100;28;20173;-41
2022/04/21 00:47:25;;;;;;;9.10;2.70;;;9.20;99.90;;;;;;5052920;28;20267;-40
2022/04/21 00:49:51;;;;;;;9.90;3.23;;;9.20;99.90;;;;;;5053022;28;20262;-42
2022/04/21 00:52:19;;;;;;;10.27;3.33;;;9.10;99.90;;;;;;5053212;28;20547;-40
2022/04/21 00:54:45;;;;;;;14.20;4.00;;;9.00;99.90;;;;;;5053214;28;20190;-47
2022/04/21 00:57:10;;;;;;;10.87;3.10;;;9.00;99.90;;;;;;5052817;28;20216;-46
2022/04/21 00:59:37;;;;;;;13.10;3.50;;;9.00;99.90;;;;;;5053520;28;20177;-47
2022/04/21 01:04:48;;;;;;;11.17;3.40;;;8.90;99.90;;;;;;5053225;28;20171;-48
2022/04/21 01:07:13;;;;;;;9.10;2.83;;;8.90;99.90;;;;;;5053037;28;20204;-48
2022/04/21 01:09:39;;;;;;;12.13;3.17;;;8.80;99.90;;;;;;5052824;28;20176;-47
2022/04/21 01:12:09;;;;;;;18.17;3.33;;;8.80;99.90;;;;;;5052910;28;20184;-48
2022/04/21 01:14:37;;;;;;;11.60;3.37;;;8.70;99.90;;;;;;5053044;28;20573;-48
2022/04/21 01:17:03;;;;;;;15.20;3.60;;;8.60;99.90;;;;;;5052403;28;20213;-48
2022/04/21 01:19:29;;;;;;;8.70;3.37;;;8.60;99.90;;;;;;5052714;28;20637;-46
2022/04/21 01:21:54;;;;;;;12.50;2.70;;;8.50;99.90;;;;;;5051473;28;20181;-46
2022/04/21 01:24:20;;;;;;;8.50;3.20;;;8.50;99.90;;;;;;5052640;28;20176;-47
2022/04/21 01:26:46;;;;;;;16.83;3.17;;;8.50;99.90;;;;;;5052940;28;20205;-46
2022/04/21 01:29:12;;;;;;;17.30;3.53;;;8.40;99.90;;;;;;5052631;28;20168;-47
2022/04/21 01:31:38;;;;;;;8.20;3.27;;;8.40;99.90;;;;;;5052624;28;20219;-47
2022/04/21 01:34:04;;;;;;;10.50;3.27;;;8.30;99.90;;;;;;5053131;28;20195;-46
2022/04/21 01:36:30;;;;;;;11.37;3.53;;;8.30;99.90;;;;;;5052500;28;20200;-47
2022/04/21 01:41:40;;;;;;;9.13;3.37;;;8.20;99.90;;;;;;5054984;28;20254;-47
2022/04/21 01:44:05;;;;;;;6.23;2.77;;;8.10;99.90;;;;;;5056344;28;20208;-47
2022/04/21 01:46:31;;;;;;;8.33;3.03;;;8.00;99.90;;;;;;5055980;28;20206;-47
2022/04/21 01:48:57;;;;;;;11.63;2.70;;;8.00;99.90;;;;;;5056117;28;20545;-47
2022/04/21 01:51:22;;;;;;;6.80;3.37;;;7.90;99.90;;;;;;5055978;28;20196;-44
2022/04/21 01:53:48;;;;;;;11.10;3.47;;;7.90;99.90;;;;;;5055919;28;20663;-46
2022/04/21 01:56:15;;;;;;;8.33;2.70;;;7.80;99.90;;;;;;5056247;28;20246;-46
2022/04/21 01:58:41;;;;;;;12.60;3.20;;;7.80;99.90;;;;;;5055737;28;20303;-47
2022/04/21 02:01:07;;;;;;;4.20;2.70;;;7.70;99.90;;;;;;5055748;28;20267;-46
2022/04/21 02:03:32;;;;;;;5.37;3.10;;;7.70;99.90;;;;;;5056301;28;20259;-47
2022/04/21 02:05:59;;;;;;;5.67;2.97;;;7.70;99.90;;;;;;5055911;28;20176;-48
2022/04/21 02:08:27;;;;;;;6.83;2.67;;;7.70;99.90;;;;;;5055994;28;20226;-46
2022/04/21 02:10:53;;;;;;;5.47;2.93;;;7.60;99.90;;;;;;5055571;28;20176;-46
2022/04/21 02:13:19;;;;;;;5.33;2.70;;;7.60;99.90;;;;;;5055813;28;20255;-47
2022/04/21 02:15:45;;;;;;;5.63;3.23;;;7.60;99.90;;;;;;5055642;28;20675;-46
2022/04/21 02:18:10;;;;;;;5.07;3.10;;;7.60;99.90;;;;;;5055590;28;20286;-47
2022/04/21 02:20:36;;;;;;;4.23;2.90;;;7.60;99.90;;;;;;5055739;28;20184;-47
2022/04/21 02:23:01;;;;;;;5.30;2.80;;;7.60;99.90;;;;;;5055650;28;20176;-47
2022/04/21 02:25:27;;;;;;;4.43;2.70;;;7.50;99.90;;;;;;5055277;28;20317;-46
2022/04/21 02:27:53;;;;;;;3.13;2.50;;;7.50;99.90;;;;;;5055341;28;20207;-47
2022/04/21 02:30:19;;;;;;;7.20;2.60;;;7.40;99.90;;;;;;5056013;28;20184;-46
2022/04/21 02:32:45;;;;;;;6.83;2.43;;;7.40;99.90;;;;;;5055604;28;20208;-47
2022/04/21 02:35:12;;;;;;;7.20;2.70;;;7.30;99.90;;;;;;5055150;28;20674;-48
2022/04/21 02:37:40;;;;;;;3.30;2.67;;;7.30;99.90;;;;;;5055329;28;20211;-47
2022/04/21 02:40:07;;;;;;;4.70;2.40;;;7.20;99.90;;;;;;5053794;28;20203;-47
2022/04/21 02:42:33;;;;;;;6.90;2.80;;;7.10;99.90;;;;;;5054930;28;20183;-45
2022/04/21 02:44:59;;;;;;;5.53;2.70;;;7.10;99.90;;;;;;5055256;28;20180;-46
2022/04/21 02:47:25;;;;;;;5.17;2.67;;;7.00;99.90;;;;;;5054824;28;20222;-47
2022/04/21 02:49:52;;;;;;;5.30;2.43;;;7.00;99.90;;;;;;5054840;28;20628;-48
2022/04/21 02:52:18;;;;;;;3.40;2.60;;;6.90;99.90;;;;;;5054655;28;20186;-46
2022/04/21 02:57:30;;;;;;;4.70;2.37;;;6.80;99.90;;;;;;5055091;28;20709;-45
2022/04/21 02:59:59;;;;;;;3.30;2.50;;;6.80;99.90;;;;;;5054929;28;20188;-47
2022/04/21 03:02:25;;;;;;;4.20;2.93;;;6.70;99.90;;;;;;5054613;28;20528;-45
2022/04/21 03:04:52;;;;;;;4.57;2.47;;;6.70;99.90;;;;;;5053432;28;20207;-47
2022/04/21 03:07:22;;;;;;;3.37;2.67;;;6.60;99.90;;;;;;5054531;28;20203;-48
2022/04/21 03:09:53;;;;;;;2.80;2.50;;;6.50;99.90;;;;;;5054539;28;20191;-46
2022/04/21 03:12:21;;;;;;;4.30;2.43;;;6.40;99.90;;;;;;5054789;28;20183;-48
2022/04/21 03:14:49;;;;;;;4.13;2.80;;;6.40;99.90;;;;;;5054639;28;20183;-46
2022/04/21 03:17:14;;;;;;;3.20;2.10;;;6.40;99.90;;;;;;5054162;28;20212;-46
2022/04/21 03:19:40;;;;;;;2.60;2.30;;;6.30;99.90;;;;;;5054286;28;20241;-46
2022/04/21 03:24:53;;;;;;;3.90;2.50;;;6.20;99.90;;;;;;5054524;28;20195;-46
2022/04/21 03:27:19;;;;;;;3.87;2.60;;;6.20;99.90;;;;;;5054113;28;20660;-46
2022/04/21 03:29:44;;;;;;;4.40;2.40;;;6.10;99.90;;;;;;5054657;28;20179;-45
2022/04/21 03:32:13;;;;;;;3.93;2.43;;;6.10;99.90;;;;;;5054372;28;20195;-45
2022/04/21 03:34:40;;;;;;;3.23;2.60;;;6.00;99.90;;;;;;5054317;28;20245;-47
2022/04/21 03:37:07;;;;;;;4.83;2.97;;;6.00;99.90;;;;;;5053883;28;20243;-46
2022/04/21 03:39:34;;;;;;;6.23;2.73;;;6.00;99.90;;;;;;5053947;28;20232;-46
2022/04/21 03:42:01;;;;;;;2.87;2.43;;;6.00;99.90;;;;;;5054238;28;20176;-45
2022/04/21 03:44:27;;;;;;;4.00;2.90;;;6.00;99.90;;;;;;5053865;28;20197;-46
2022/04/21 03:46:57;;;;;;;4.97;3.10;;;5.90;99.90;;;;;;5053877;28;20200;-46
2022/04/21 03:49:24;;;;;;;3.20;2.63;;;5.90;99.90;;;;;;5053995;28;20190;-46
2022/04/21 03:51:49;;;;;;;4.33;2.70;;;5.90;99.90;;;;;;5054146;28;20201;-46
2022/04/21 03:54:15;;;;;;;3.90;2.77;;;5.90;99.90;;;;;;5053795;28;20247;-47
2022/04/21 03:56:40;;;;;;;3.83;2.53;;;5.80;99.90;;;;;;5053854;28;20207;-47
2022/04/21 03:59:06;;;;;;;3.07;2.40;;;5.80;99.90;;;;;;5053888;28;20183;-47
2022/04/21 04:01:32;;;;;;;3.20;2.20;;;5.70;99.90;;;;;;5053628;28;20628;-46
2022/04/21 04:03:57;;;;;;;3.90;2.80;;;5.70;99.90;;;;;;5053141;28;20205;-45
2022/04/21 04:11:51;;;;;;;3.80;2.77;;;5.60;99.90;;;;;;5054010;28;20587;-46
2022/04/21 04:14:17;;;;;;;4.07;3.23;;;5.50;99.90;;;;;;5053419;28;20203;-46
2022/04/21 04:16:44;;;;;;;4.60;3.17;;;5.50;99.90;;;;;;5053046;28;20272;-45
2022/04/21 04:19:10;;;;;;;4.57;2.63;;;5.50;99.90;;;;;;5053552;28;20190;-48
2022/04/21 04:21:36;;;;;;;6.07;3.00;;;5.50;99.90;;;;;;5053236;28;20646;-46
2022/04/21 04:24:03;;;;;;;4.27;3.40;;;5.50;99.90;;;;;;5053525;28;20190;-46
2022/04/21 04:26:29;;;;;;;4.40;3.30;;;5.50;99.90;;;;;;5053496;28;20209;-46
2022/04/21 04:28:54;;;;;;;5.50;3.23;;;5.50;99.90;;;;;;5053542;28;20562;-46
2022/04/21 04:31:20;;;;;;;5.70;3.73;;;5.50;99.90;;;;;;5053335;28;20193;-46
2022/04/21 04:33:45;;;;;;;5.53;3.30;;;5.50;99.90;;;;;;5053414;28;20179;-45
2022/04/21 04:36:11;;;;;;;6.97;3.23;;;5.50;99.90;;;;;;5053426;28;20207;-47
2022/04/21 04:38:37;;;;;;;4.37;3.47;;;5.50;99.90;;;;;;5053542;28;20210;-46
2022/04/21 04:42:16;;;;;;;4.67;3.27;;;5.50;99.90;;;;;;5054011;28;20174;-47
2022/04/21 04:43:49;;;;;;;4.13;3.17;;;5.40;99.90;;;;;;5053025;28;20192;-45
2022/04/21 04:48:59;;;;;;;6.13;2.73;;;5.40;99.90;;;;;;5053357;28;20617;-47
2022/04/21 04:51:26;;;;;;;6.10;3.17;;;5.40;99.90;;;;;;5053335;28;20187;-47
2022/04/21 04:53:53;;;;;;;5.53;2.30;;;5.30;99.90;;;;;;5053335;28;20209;-46
2022/04/21 04:56:22;;;;;;;5.10;3.10;;;5.30;99.90;;;;;;5053171;28;20550;-47
2022/04/21 04:58:48;;;;;;;2.97;2.60;;;5.20;99.90;;;;;;5053414;28;20202;-46
2022/04/21 05:01:26;;;;;;;4.30;2.90;;;5.10;99.90;;;;;;5053195;28;20178;-47
2022/04/21 05:04:12;;;;;;;5.53;2.67;;;5.10;99.90;;;;;;5051658;28;20324;-46
2022/04/21 05:06:47;;;;;;;5.73;3.07;;;5.10;99.90;;;;;;5052482;28;20212;-47
2022/04/21 05:09:16;;;;;;;5.13;3.03;;;5.10;99.90;;;;;;5052986;28;20174;-47
2022/04/21 05:11:43;;;;;;;9.93;3.80;;;5.10;99.90;;;;;;5052816;28;20175;-47
2022/04/21 05:14:09;;;;;;;5.43;3.33;;;5.10;99.90;;;;;;5053092;28;20172;-46
2022/04/21 05:16:36;;;;;;;4.07;3.03;;;5.10;99.90;;;;;;5054775;28;20592;-46
2022/04/21 05:19:04;;;;;;;4.03;3.30;;;5.20;99.90;;;;;;5056463;28;20230;-47
2022/04/21 05:21:30;;;;;;;3.27;2.80;;;5.10;99.90;;;;;;5056770;28;20535;-47
2022/04/21 05:23:57;;;;;;;5.57;3.17;;;5.20;99.90;;;;;;5056684;28;20200;-45
2022/04/21 05:26:24;;;;;;;6.63;3.33;;;5.20;99.90;;;;;;5056789;28;20573;-46
2022/04/21 05:28:50;;;;;;;6.33;3.17;;;5.20;99.90;;;;;;5056667;28;20192;-46
2022/04/21 05:31:16;;;;;;;8.03;3.43;;;5.30;99.90;;;;;;5056610;28;20243;-45
2022/04/21 05:33:42;;;;;;;7.47;2.97;;;5.40;99.90;;;;;;5056562;28;20278;-47
2022/04/21 05:36:08;;;;;;;15.80;3.70;;;5.40;99.90;;;;;;5056628;28;20271;-46
2022/04/21 05:38:35;;;;;;;7.43;3.50;;;5.50;99.90;;;;;;5056181;28;20209;-46
2022/04/21 05:41:01;;;;;;;6.17;3.73;;;5.70;99.90;;;;;;5056450;28;20630;-46
2022/04/21 05:43:36;;;;;;;8.60;4.00;;;5.90;99.90;;;;;;5056111;28;20186;-47
2022/04/21 05:46:02;;;;;;;8.10;3.77;;;6.00;99.90;;;;;;5056371;28;20563;-47
2022/04/21 05:48:28;;;;;;;7.03;3.40;;;6.10;99.90;;;;;;5056138;28;20191;-46
2022/04/21 05:50:54;;;;;;;4.57;3.37;;;6.30;99.90;;;;;;5055988;28;20186;-47
2022/04/21 05:53:22;;;;;;;7.80;4.10;;;6.60;99.90;;;;;;5055860;28;20187;-46
2022/04/21 05:55:48;;;;;;;9.40;4.50;;;6.80;99.90;;;;;;5055741;28;20217;-45
2022/04/21 05:58:13;;;;;;;6.60;3.83;;;7.10;99.90;;;;;;5055669;28;20662;-45
2022/04/21 06:00:39;;;;;;;7.97;4.03;;;7.30;99.90;;;;;;5056123;28;20186;-46
2022/04/21 06:03:05;;;;;;;9.50;4.60;;;7.50;99.90;;;;;;5055751;28;20178;-48
2022/04/21 06:05:31;;;;;;;6.37;4.30;;;7.70;99.90;;;;;;5054471;28;20186;-48
2022/04/21 06:07:57;;;;;;;6.53;4.33;;;7.90;99.90;;;;;;5055605;28;20258;-46
2022/04/21 06:10:22;;;;;;;10.77;4.73;;;8.00;99.90;;;;;;5055656;28;20274;-45
2022/04/21 06:12:49;;;;;;;10.57;4.50;;;8.20;99.90;;;;;;5055608;28;20187;-45
2022/04/21 06:15:15;;;;;;;10.27;4.90;;;8.40;99.90;;;;;;5056161;28;20180;-47
2022/04/21 06:17:42;;;;;;;8.57;4.43;;;8.50;99.90;;;;;;5055290;28;20237;-47
2022/04/21 06:20:09;;;;;;;10.70;4.70;;;8.60;99.90;;;;;;5055799;28;20210;-46
2022/04/21 06:22:34;;;;;;;8.13;5.00;;;8.70;99.90;;;;;;5055496;28;20183;-47
2022/04/21 06:25:00;;;;;;;9.60;4.87;;;8.90;99.90;;;;;;5055278;28;20242;-48
2022/04/21 06:27:26;;;;;;;8.83;5.07;;;9.10;99.90;;;;;;5055049;28;20210;-47
2022/04/21 06:29:51;;;;;;;12.57;5.40;;;9.30;99.90;;;;;;5055553;28;20218;-46
2022/04/21 06:32:17;;;;;;;13.17;6.00;;;9.40;99.90;;;;;;5055202;28;20198;-46
2022/04/21 06:34:43;;;;;;;9.17;5.07;;;9.40;99.90;;;;;;5055486;28;20184;-46
2022/04/21 06:37:09;;;;;;;10.07;5.20;;;9.40;99.90;;;;;;5055828;28;20246;-46
2022/04/21 06:39:34;;;;;;;11.63;4.90;;;9.50;99.90;;;;;;5055188;28;20599;-48
2022/04/21 06:42:00;;;;;;;11.20;4.60;;;9.60;99.90;;;;;;5055407;28;20237;-47
2022/04/21 06:49:53;;;;;;;10.90;4.77;;;10.00;99.90;;;;;;5055668;28;20626;-41
2022/04/21 06:52:19;;;;;;;15.70;4.90;;;10.10;99.90;;;;;;5055150;28;20267;-40
2022/04/21 06:54:44;;;;;;;9.23;4.60;;;10.20;99.90;;;;;;5054858;28;20227;-40
2022/04/21 06:57:10;;;;;;;8.77;4.30;;;10.30;99.90;;;;;;5054778;28;20220;-43
2022/04/21 06:59:37;;;;;;;15.60;5.30;;;10.50;99.90;;;;;;5054785;28;20302;-41
2022/04/21 07:02:04;;;;;;;9.30;5.00;;;10.70;99.90;;;;;;5054853;28;20238;-39
2022/04/21 07:04:30;;;;;;;10.97;4.63;;;10.80;99.90;;;;;;5054637;28;20208;-42
2022/04/21 07:06:55;;;;;;;16.97;5.00;;;10.90;99.90;;;;;;5054509;28;20680;-39
2022/04/21 07:09:21;;;;;;;9.97;4.50;;;11.10;99.90;;;;;;5054821;28;20187;-39
2022/04/21 07:11:47;;;;;;;9.40;4.40;;;11.10;99.90;;;;;;5054793;28;20181;-40
2022/04/21 07:14:12;;;;;;;9.50;4.27;;;11.20;99.90;;;;;;5054731;28;20189;-45
2022/04/21 07:16:38;;;;;;;11.43;4.30;;;11.50;99.90;;;;;;5054286;28;20223;-44
2022/04/21 07:19:04;;;;;;;10.30;4.27;;;11.60;99.90;;;;;;5054270;28;20226;-44
2022/04/21 07:21:29;;;;;;;11.07;4.20;;;11.50;99.90;;;;;;5054382;28;20184;-43
2022/04/21 07:23:55;;;;;;;7.87;4.57;;;11.60;99.90;;;;;;5054708;28;20175;-44
2022/04/21 07:26:21;;;;;;;12.73;4.50;;;11.60;99.90;;;;;;5054261;28;20635;-44
2022/04/21 07:28:47;;;;;;;11.23;4.57;;;11.60;99.90;;;;;;5054583;28;20215;-43
2022/04/21 07:31:12;;;;;;;20.07;4.50;;;11.70;99.90;;;;;;5054675;28;20265;-44
2022/04/21 07:33:38;;;;;;;5.33;4.00;;;11.80;99.90;;;;;;5054429;28;20330;-45
2022/04/21 07:36:04;;;;;;;10.20;3.87;;;11.80;99.90;;;;;;5054092;28;20207;-43
2022/04/21 07:38:31;;;;;;;8.90;4.43;;;11.90;99.90;;;;;;5053543;28;20211;-44
2022/04/21 07:40:57;;;;;;;10.97;4.40;;;12.10;99.90;;;;;;5053223;28;20595;-45
2022/04/21 07:43:23;;;;;;;6.57;3.87;;;12.20;99.90;;;;;;5053967;28;20180;-46
2022/04/21 07:45:51;;;;;;;12.20;5.10;;;12.20;99.90;;;;;;5053785;28;20620;-46
2022/04/21 07:48:18;;;;;;;9.97;4.40;;;12.20;99.90;;;;;;5052620;28;20670;-45
2022/04/21 07:50:43;;;;;;;9.03;4.40;;;12.40;99.90;;;;;;5054229;28;20532;-45
2022/04/21 07:53:15;;;;;;;5.57;4.17;;;12.60;99.90;;;;;;5086203;28;20184;-43
2022/04/21 07:55:42;;;;;;;10.53;4.17;;;12.80;99.90;;;;;;5054361;28;20172;-44
2022/04/21 07:58:08;;;;;;;13.67;4.50;;;12.90;99.90;;;;;;5053956;28;20215;-45
2022/04/21 08:00:38;;;;;;;6.60;3.70;;;13.00;99.90;;;;;;5054248;28;20562;-45
2022/04/21 08:03:05;;;;;;;9.57;4.10;;;13.00;99.90;;;;;;5054225;28;20214;-45
2022/04/21 08:05:31;;;;;;;6.87;4.50;;;13.00;99.90;;;;;;5053978;28;20192;-46
2022/04/21 08:07:58;;;;;;;9.90;4.30;;;13.10;99.90;;;;;;5052353;28;20204;-44
2022/04/21 08:10:25;;;;;;;9.80;4.03;;;13.20;99.90;;;;;;5052353;28;20189;-46
2022/04/21 08:12:53;;;;;;;7.57;4.07;;;13.30;99.90;;;;;;5053899;28;20272;-47
2022/04/21 08:15:33;;;;;;;13.07;4.77;;;13.40;99.90;;;;;;5053830;28;20196;-45
2022/04/21 08:18:01;;;;;;;7.40;4.23;;;13.40;99.90;;;;;;5066470;28;20234;-46
2022/04/21 08:20:28;;;;;;;9.20;4.57;;;13.40;99.90;;;;;;5070041;28;20183;-46
2022/04/21 08:22:53;;;;;;;6.80;3.93;;;13.50;99.90;;;;;;5061001;28;20200;-45
2022/04/21 08:33:33;;;;;;;7.30;4.03;;;13.60;99.90;;;;;;5054201;28;20230;-44
2022/04/21 08:35:59;;;;;;;5.77;3.70;;;13.70;99.90;;;;;;5053934;28;20192;-45
2022/04/21 08:38:28;;;;;;;7.53;3.90;;;13.80;99.90;;;;;;5053886;28;20207;-46
2022/04/21 08:40:58;;;;;;;12.47;4.57;;;13.90;99.90;;;;;;5053903;28;20597;-45
2022/04/21 08:43:29;;;;;;;8.80;3.97;;;14.10;99.90;;;;;;5053816;28;20631;-44
2022/04/21 08:45:56;;;;;;;5.50;3.63;;;14.10;99.90;;;;;;5053570;28;20164;-44
2022/04/21 08:48:24;;;;;;;7.27;3.73;;;14.10;99.90;;;;;;5053653;28;20180;-46
2022/04/21 08:50:50;;;;;;;7.90;4.50;;;14.10;99.90;;;;;;5054617;28;20572;-46
2022/04/21 08:53:19;;;;;;;8.20;4.47;;;14.20;99.90;;;;;;5057413;28;20191;-45
2022/04/21 08:55:45;;;;;;;10.97;3.87;;;14.30;99.90;;;;;;5057373;28;20188;-45
2022/04/21 08:58:11;;;;;;;7.30;3.77;;;14.40;99.90;;;;;;5057220;28;20298;-46
2022/04/21 09:00:38;;;;;;;9.87;4.17;;;14.40;99.90;;;;;;5057571;28;20265;-46
2022/04/21 09:03:06;;;;;;;6.70;3.90;;;14.40;99.90;;;;;;5057238;28;20183;-46
2022/04/21 09:05:32;;;;;;;8.80;4.57;;;14.40;99.90;;;;;;5055741;28;20197;-45
2022/04/21 09:07:59;;;;;;;5.00;3.83;;;14.50;99.90;;;;;;5057006;28;20739;-44
2022/04/21 09:10:29;;;;;;;6.53;3.77;;;14.50;99.90;;;;;;5057196;28;20184;-46
2022/04/21 09:13:02;;;;;;;7.00;4.07;;;14.50;99.90;;;;;;5057129;28;20237;-46
2022/04/21 09:15:32;;;;;;;4.67;3.73;;;14.50;99.90;;;;;;5072836;28;20179;-46
2022/04/21 09:18:09;;;;;;;16.13;4.63;;;14.50;99.90;;;;;;5056691;28;20231;-46
2022/04/21 09:20:39;;;;;;;13.57;4.13;;;14.50;99.90;;;;;;5056931;28;20160;-46
2022/04/21 09:23:07;;;;;;;6.50;3.53;;;14.50;99.90;;;;;;5057148;28;20169;-45
2022/04/21 09:25:47;;;;;;;4.60;2.90;;;14.70;99.90;;;;;;5056749;28;20181;-47
2022/04/21 09:28:29;;;;;;;6.50;4.13;;;14.80;99.90;;;;;;5056788;28;20152;-45
2022/04/21 09:30:56;;;;;;;9.53;4.00;;;14.90;99.90;;;;;;5056847;28;20180;-44
2022/04/21 09:33:30;;;;;;;5.43;3.60;;;14.90;99.90;;;;;;5056519;28;20662;-46
2022/04/21 09:36:00;;;;;;;9.37;3.03;;;15.00;99.90;;;;;;5056495;28;20181;-47
2022/04/21 09:38:26;;;;;;;4.87;2.70;;;15.00;99.90;;;;;;5056873;28;20210;-46
2022/04/21 09:40:52;;;;;;;6.63;2.57;;;15.00;99.90;;;;;;5056527;28;20180;-46
2022/04/21 09:43:29;;;;;;;5.67;3.30;;;15.20;99.90;;;;;;5056689;28;20238;-46
2022/04/21 09:46:11;;;;;;;7.00;2.67;;;15.60;99.90;;;;;;5056475;28;20172;-45
2022/04/21 09:48:37;;;;;;;3.03;2.30;;;15.70;99.90;;;;;;5056830;28;20164;-46
2022/04/21 09:51:14;;;;;;;4.27;2.57;;;15.70;99.90;;;;;;5056644;28;20188;-47
2022/04/21 09:53:53;;;;;;;5.37;3.40;;;15.80;99.90;;;;;;5054824;28;20271;-46
2022/04/21 09:56:31;;;;;;;4.83;2.97;;;15.70;99.90;;;;;;5056503;28;20238;-46
2022/04/21 09:58:57;;;;;;;4.57;2.80;;;15.50;99.90;;;;;;5056222;28;20202;-44
2022/04/21 10:01:23;;;;;;;3.27;2.50;;;15.50;99.90;;;;;;5053696;28;20227;-47
2022/04/21 10:03:49;;;;;;;8.03;2.80;;;15.40;99.90;;;;;;5055751;28;20649;-46
2022/04/21 10:06:16;;;;;;;7.87;2.73;;;15.40;99.90;;;;;;5056292;28;20253;-46
2022/04/21 10:08:43;;;;;;;5.13;2.10;;;15.50;99.90;;;;;;5055660;28;20188;-47
2022/04/21 10:11:09;;;;;;;4.13;1.97;;;15.60;99.40;;;;;;5056018;28;20180;-47
2022/04/21 10:13:35;;;;;;;2.40;1.67;;;15.70;99.40;;;;;;5055982;28;20188;-46
2022/04/21 10:16:01;;;;;;;2.73;1.70;;;15.90;99.90;;;;;;5055359;28;20279;-45
2022/04/21 10:18:27;;;;;;;4.37;2.00;;;16.10;99.30;;;;;;5054155;28;20211;-47
2022/04/21 10:20:55;;;;;;;3.90;1.53;;;16.20;98.60;;;;;;5055541;28;20172;-46
2022/04/21 10:23:22;;;;;;;6.93;1.80;;;16.30;96.70;;;;;;5055689;28;20165;-46
2022/04/21 10:25:59;;;;;;;2.43;1.53;;;16.30;95.50;;;;;;5055526;28;20180;-45
2022/04/21 10:28:38;;;;;;;2.17;1.50;;;16.30;94.20;;;;;;5055907;28;20218;-47
2022/04/21 10:31:24;;;;;;;5.27;1.67;;;16.20;94.20;;;;;;5054050;28;20180;-46
2022/04/21 10:33:55;;;;;;;4.13;1.40;;;16.20;95.60;;;;;;5055155;28;20195;-45
2022/04/21 10:36:42;;;;;;;3.60;1.50;;;16.20;94.00;;;;;;5055352;28;20196;-45
2022/04/21 10:39:25;;;;;;;5.43;1.70;;;16.10;94.00;;;;;;5055248;28;20203;-46
2022/04/21 10:42:14;;;;;;;1.97;1.77;;;16.00;95.10;;;;;;5055360;28;20184;-44
2022/04/21 10:44:50;;;;;;;1.43;1.33;;;16.10;94.10;;;;;;5055394;28;20171;-46
2022/04/21 10:47:35;;;;;;;2.20;1.90;;;16.20;93.70;;;;;;5055207;28;20291;-45
2022/04/21 10:50:20;;;;;;;3.97;1.47;;;16.30;94.20;;;;;;5055432;28;20234;-46
2022/04/21 10:58:35;;;;;;;6.30;1.63;;;16.60;92.10;;;;;;5054966;28;20231;-45
2022/04/21 11:01:07;;;;;;;4.20;1.87;;;16.60;93.30;;;;;;5054760;28;20263;-45
2022/04/21 11:03:33;;;;;;;2.43;1.60;;;16.80;93.10;;;;;;5054891;28;20176;-46
2022/04/21 11:06:11;;;;;;;5.90;2.10;;;17.00;94.00;;;;;;5054666;28;20180;-44
2022/04/21 11:08:37;;;;;;;4.90;1.87;;;17.30;94.20;;;;;;5054522;28;20649;-46
2022/04/21 11:11:04;;;;;;;6.90;1.70;;;17.70;93.50;;;;;;5054951;28;20249;-47
2022/04/21 11:13:49;;;;;;;1.90;1.60;;;18.00;93.80;;;;;;5054477;28;20194;-47
2022/04/21 11:16:40;;;;;;;2.37;2.00;;;18.30;94.50;;;;;;5054527;28;20663;-46
2022/04/21 11:19:30;;;;;;;3.27;2.00;;;18.50;92.80;;;;;;5054394;28;20279;-45
2022/04/21 11:22:04;;;;;;;5.67;2.10;;;18.40;91.00;;;;;;5054598;28;20176;-47
2022/04/21 11:24:54;;;;;;;4.30;2.10;;;18.20;91.70;;;;;;5054507;28;20163;-46
2022/04/21 11:27:21;;;;;;;3.10;2.10;;;18.20;92.80;;;;;;5054188;28;20707;-47
2022/04/21 11:29:46;;;;;;;4.93;2.43;;;18.20;93.20;;;;;;5054317;28;20226;-47
2022/04/21 11:32:16;;;;;;;5.60;2.47;;;18.20;92.20;;;;;;5054248;28;20212;-47
2022/04/21 11:34:42;;;;;;;4.17;2.10;;;18.20;91.80;;;;;;5054198;28;20185;-47
2022/04/21 11:37:08;;;;;;;7.73;3.10;;;18.20;93.20;;;;;;5053998;28;20212;-46
2022/04/21 11:39:38;;;;;;;2.93;2.07;;;18.00;93.20;;;;;;5054259;28;20180;-46
2022/04/21 11:42:04;;;;;;;5.87;2.87;;;17.90;94.20;;;;;;5052779;28;20184;-47
2022/04/21 11:44:29;;;;;;;5.13;2.40;;;17.90;94.90;;;;;;5053891;28;20180;-47
2022/04/21 11:46:55;;;;;;;7.87;2.10;;;17.90;94.10;;;;;;5053835;28;20234;-47
2022/04/21 11:49:21;;;;;;;6.40;2.20;;;17.90;93.70;;;;;;5054096;28;20203;-45
2022/04/21 11:51:52;;;;;;;5.07;2.30;;;17.80;92.50;;;;;;5054342;28;20263;-46
2022/04/21 11:54:18;;;;;;;7.97;2.67;;;17.70;92.40;;;;;;5052918;28;20220;-47
2022/04/21 11:56:50;;;;;;;9.90;2.40;;;17.50;92.90;;;;;;5053688;28;20281;-46
2022/04/21 11:59:16;;;;;;;10.00;2.50;;;17.40;93.70;;;;;;5054022;28;20706;-48
2022/04/21 12:07:30;;;;;;;3.30;1.80;;;17.30;94.20;;;;;;5051607;28;20413;-47
2022/04/21 12:09:56;;;;;;;4.67;1.77;;;17.20;93.90;;;;;;5051600;28;20648;-47
2022/04/21 12:12:21;;;;;;;4.70;1.77;;;17.10;94.40;;;;;;5052832;28;20341;-45
2022/04/21 12:14:47;;;;;;;5.73;1.60;;;17.00;94.20;;;;;;5054094;28;20184;-47
2022/04/21 12:17:13;;;;;;;4.13;1.97;;;17.00;94.60;;;;;;5053680;28;20341;-47
2022/04/21 12:19:45;;;;;;;2.90;1.87;;;16.90;94.80;;;;;;5055032;28;20182;-47
2022/04/21 12:22:13;;;;;;;4.63;2.20;;;16.90;95.30;;;;;;5055023;28;20160;-47
2022/04/21 12:24:44;;;;;;;7.63;2.27;;;16.80;94.40;;;;;;5055876;28;20731;-45
2022/04/21 12:27:14;;;;;;;6.97;2.30;;;16.70;95.50;;;;;;5063485;28;20223;-47
2022/04/21 12:29:47;;;;;;;2.80;1.77;;;16.70;95.30;;;;;;5062795;28;20179;-47
2022/04/21 12:32:15;;;;;;;4.07;2.60;;;16.70;95.30;;;;;;5055788;28;20176;-47
2022/04/21 12:34:41;;;;;;;5.30;2.30;;;16.70;95.00;;;;;;5054362;28;20183;-46
2022/04/21 12:37:08;;;;;;;3.63;2.57;;;16.60;95.90;;;;;;5053884;28;20188;-49
2022/04/21 12:39:34;;;;;;;8.23;2.20;;;16.60;95.40;;;;;;5053795;28;20591;-46
2022/04/21 12:42:03;;;;;;;3.90;2.50;;;16.70;95.70;;;;;;5053937;28;20172;-46
2022/04/21 12:44:29;;;;;;;5.27;2.93;;;16.80;95.80;;;;;;5053474;28;20259;-50
2022/04/21 12:47:03;;;;;;;3.90;2.50;;;16.90;95.60;;;;;;5053409;28;20197;-52
2022/04/21 12:49:57;;;;;;;4.07;2.20;;;17.00;96.20;;;;;;5053335;28;20625;-51
2022/04/21 12:52:56;;;;;;;7.53;2.40;;;17.00;96.70;;;;;;5053390;28;20168;-52
2022/04/21 12:55:22;;;;;;;2.40;2.13;;;17.00;96.60;;;;;;5041551;28;20245;-51
2022/04/21 12:58:07;;;;;;;13.73;3.17;;;17.00;96.60;;;;;;5051278;28;20208;-52
2022/04/21 13:00:34;;;;;;;3.93;2.80;;;17.00;96.20;;;;;;5033273;28;20231;-51
2022/04/21 13:03:01;;;;;;;5.37;2.90;;;16.80;96.50;;;;;;5032830;28;20185;-50
2022/04/21 13:05:27;;;;;;;4.70;3.10;;;16.80;97.20;;;;;;5033204;28;20220;-51
2022/04/21 13:07:53;;;;;;;9.23;2.60;;;16.80;97.30;;;;;;5032792;28;20676;-50
2022/04/21 13:10:21;;;;;;;6.87;2.47;;;16.80;97.60;;;;;;5033427;28;20185;-50
2022/04/21 13:12:47;;;;;;;4.00;2.67;;;16.90;97.80;;;;;;5033449;28;20173;-51
2022/04/21 13:15:13;;;;;;;8.53;3.00;;;16.90;97.60;;;;;;5048438;28;20181;-51
2022/04/21 13:17:40;;;;;;;8.73;3.20;;;17.00;97.90;;;;;;5032574;28;20639;-50
2022/04/21 13:20:06;;;;;;;4.83;2.77;;;17.00;97.90;;;;;;5033042;28;20181;-51
2022/04/21 13:22:32;;;;;;;5.73;2.60;;;17.10;98.10;;;;;;5033230;28;20181;-49
2022/04/21 13:24:58;;;;;;;3.30;3.00;;;17.10;97.60;;;;;;5032723;28;20185;-50
2022/04/21 13:27:26;;;;;;;7.27;2.83;;;17.10;98.30;;;;;;5032895;28;20571;-50
2022/04/21 13:29:52;;;;;;;6.83;2.80;;;17.10;98.20;;;;;;5032855;28;20177;-51
2022/04/21 13:35:01;;;;;;;3.17;2.20;;;17.60;97.60;;;;;;5033057;28;20541;-50
2022/04/21 13:37:27;;;;;;;5.67;2.83;;;17.70;97.40;;;;;;5034660;28;20204;-50
2022/04/21 13:39:52;;;;;;;5.97;3.10;;;18.00;97.50;;;;;;5035075;28;20637;-50
2022/04/21 13:42:18;;;;;;;4.67;2.70;;;18.20;98.20;;;;;;5036446;28;20556;-51
2022/04/21 13:44:43;;;;;;;4.67;2.70;;;18.50;97.50;;;;;;5036130;28;20177;-49